Tiempo atmosférico en la estación meteorológica de Pinoso, Alacant/Alicante (575 m.)



Fecha
DESCASC
Temp. máxima en grados centígrados (hora)
DESCASC
Temp. mínima en grados centígrados (hora)
DESCASC
Temp. media en grados centígrados
DESCASC
Racha de viento máxima en m/sg (hora)
DESCASC
Velocidad máxima media en intervalos de 10 minutos(hora)
DESCASC
Precipitaciones diarias en mm
DESCASC
Precipitaciones de 00:00 a 06:00 en mm
DESCASC
Precipitaciones de 06:00 a 12:00 en mm
DESCASC
Precipitaciones de 12:00 a 18:00 en mm
DESCASC
Precipitaciones de 18:00 a 24:00 en mm
DESCASC
10-07-2020 33.1 (16:20) 17.1 (04:40) 25.1 8.89 (18:20) 4.17 (16:50) 0 0 0 0 0
09-07-2020 31.9 (14:10) 18.4 (07:00) 25.1 13.89 (00:40) 8.33 (00:40) 0.4 0.4 0 0 0
08-07-2020 32.3 (15:40) 16.3 (06:50) 24.3 9.44 (23:59) 5 (14:00) 0 0 0 0 0
07-07-2020 35.5 (15:20) 15.4 (06:50) 25.4 8.33 (14:40) 4.17 (17:00) 0 0 0 0 0
06-07-2020 34.1 (14:30) 14.8 (00:00) 24.4 8.61 (15:30) 4.72 (17:50) 0 0 0 0 0
05-07-2020 32.3 (15:10) 14.6 (00:00) 23.4 8.61 (17:30) 3.89 (16:10) 0 0 0 0 0
04-07-2020 31.1 (15:40) 17.8 (00:00) 24.4 8.33 (17:40) 4.72 (17:50) 0 0 0 0 0
03-07-2020 30.4 (14:10) 17.5 (06:00) 23.9 10 (18:00) 4.72 (17:30) 0 0 0 0 0
02-07-2020 37 (14:40) 18.4 (00:00) 27.7 9.72 (15:40) 5.28 (17:10) 0 0 0 0 0
01-07-2020 38.5 (16:00) 14.8 (00:00) 26.7 9.72 (16:00) 5.56 (18:20) 0 0 0 0 0
30-06-2020 33.8 (16:00) 14.7 (00:00) 24.2 8.06 (14:10) 4.44 (13:20) 0 0 0 0 0
29-06-2020 33.3 (14:40) 14.9 (00:00) 24.1 8.33 (17:10) 4.72 (17:00) 0 0 0 0 0
28-06-2020 33.7 (15:50) 14.9 (00:00) 24.3 8.33 (17:00) 3.89 (16:40) 0 0 0 0 0
27-06-2020 34.5 (15:30) 16.2 (00:00) 25.4 9.17 (18:20) 5.28 (16:50) 0 0 0 0 0
26-06-2020 32.3 (14:40) 14.4 (00:00) 23.3 13.06 (19:00) 3.61 (17:00) 0 0 0 0 0
25-06-2020 32.2 (15:50) 15.8 (00:00) 24 10.28 (16:30) 5 (17:20) 0 0 0 0 0
24-06-2020 33.1 (17:40) 15 (00:00) 24 8.06 (12:50) 5.28 (12:40) 0 0 0 0 0
23-06-2020 30.4 (15:30) 13.6 (00:00) 22 13.33 (11:40) 3.33 (15:30) 0 0 0 0 0
22-06-2020 30.2 (16:00) 15.1 (00:00) 22.7 13.61 (14:10) 4.44 (15:30) 0 0 0 0 0
21-06-2020 33.7 (16:50) 13.4 (00:00) 23.6 8.33 (13:10) 4.44 (14:10) 0 0 0 0 0
20-06-2020 31.2 (15:50) 12.4 (00:00) 21.8 8.61 (18:30) 4.72 (17:20) 0 0 0 0 0
19-06-2020 29 (16:00) 17.3 (00:00) 23.1 8.89 (18:30) 4.72 (18:30) 0 0 0 0 0
18-06-2020 28.1 (13:10) 13.4 (00:00) 20.8 8.06 (14:40) 4.17 (18:00) -- 0 0 -- 0
17-06-2020 28.1 (14:10) 12.2 (00:00) 20.2 10 (17:10) 4.72 (15:40) 0 0 0 0 0
16-06-2020 31.1 (15:50) 13.5 (00:00) 22.3 8.89 (12:30) 4.17 (17:00) 0 0 0 0 0
15-06-2020 30.9 (15:40) 12.3 (00:00) 21.6 19.17 (16:00) 4.72 (16:50) 0 0 0 0 0
14-06-2020 29.6 (16:20) 12.7 (00:00) 21.2 7.5 (14:20) 3.89 (18:30) 0 0 0 0 0
13-06-2020 27.6 (17:10) 15.1 (00:00) 21.4 12.22 (16:30) 4.72 (20:20) 0 0 0 0 0
12-06-2020 27.6 (17:20) 14.7 (00:00) 21.2 10.56 (17:50) 3.61 (18:40) 0 0 0 0 0

Gráficas

Temp. máximas Temp. mínimas Temp. medias Precipitaciones Rachas de viento máximas Velocidades máximas media en intervalos de 10 minutos

Datos horarios

Fecha y hora oficial Temperatura (ºC) Velocidad del viento (km/h) Dirección del viento Racha (km/h) Dirección de racha Precipitación (mm) Presión (hPa) Tendencia (hPa) Humedad (%)
2020-07-11 23:00:00 22.7 3 Nordeste 6 Este 0 -- -- 59
2020-07-11 22:00:00 23.5 4 Nordeste 18 Este 0 -- -- 55
2020-07-11 21:00:00 25.4 8 Este 16 Este 0 -- -- 48
2020-07-11 20:00:00 28.3 6 Sudeste 24 Este 0 -- -- 40
2020-07-11 19:00:00 29.4 12 Este 27 Este 0 -- -- 41
2020-07-11 18:00:00 -- 15 Sudeste 27 Este 0 -- -- --
2020-07-11 17:00:00 31.8 14 Este 28 Este 0 -- -- 33
2020-07-11 16:00:00 31.2 13 Este 25 Sudeste 0 -- -- 34
2020-07-11 15:00:00 31.8 8 Este 23 Nordeste 0 -- -- 31
2020-07-11 14:00:00 32.2 6 Nordeste 23 Nordeste 0 -- -- 32
2020-07-11 13:00:00 30.9 7 Este 21 Nordeste 0 -- -- 34
2020-07-11 12:00:00 29.8 8 Nordeste 19 Este 0 -- -- 36
2020-07-11 11:00:00 28.2 8 Este 16 Este 0 -- -- 37
2020-07-11 10:00:00 24.9 4 Norte 12 Noroeste 0 -- -- 57
2020-07-11 09:00:00 22.6 6 Norte 15 Norte 0 -- -- 69
2020-07-11 08:00:00 20.3 4 Nordeste 15 Norte 0 -- -- 84
2020-07-11 07:00:00 17.9 0 Calma 5 Sudeste 0 -- -- 93
2020-07-11 06:00:00 18.1 3 Nordeste 9 Este 0 -- -- 94
2020-07-11 05:00:00 18.8 3 Nordeste 8 Norte 0 -- -- 89
2020-07-11 04:00:00 19.4 0 Calma 9 Noroeste 0 -- -- 88
2020-07-11 03:00:00 19.5 3 Nordeste 8 Nordeste 0 -- -- 85
2020-07-11 02:00:00 19.3 2 Nordeste 5 Nordeste 0 -- -- 82
2020-07-11 01:00:00 20.4 4 Nordeste 9 Nordeste 0 -- -- 82
2020-07-11 00:00:00 21.2 4 Nordeste 8 Nordeste 0 -- -- 79
2020-07-10 23:00:00 22.4 5 Este 9 Este 0 -- -- 73
2020-07-10 22:00:00 23.6 3 Nordeste 12 Este 0 -- -- 59
2020-07-10 21:00:00 25.8 5 Sudeste 19 Nordeste 0 -- -- 43
2020-07-10 20:00:00 27.8 12 Nordeste 24 Este 0 -- -- 44
2020-07-10 19:00:00 29.2 13 Nordeste 32 Nordeste 0 -- -- 38
2020-07-10 18:00:00 30.9 10 Este 23 Este 0 -- -- 35
2020-07-10 17:00:00 31.7 13 Este 28 Este 0 -- -- 32
2020-07-10 16:00:00 32.6 10 Este 23 Este 0 -- -- 27
2020-07-10 15:00:00 32.5 7 Sudoeste 20 Sur 0 -- -- 28
2020-07-10 14:00:00 32.4 8 Sur 22 Sur 0 -- -- 27
2020-07-10 13:00:00 31.6 0 Calma 16 Norte 0 -- -- 30
2020-07-10 12:00:00 29.4 5 Nordeste 13 Noroeste 0 -- -- 33
2020-07-10 11:00:00 26.8 3 Noroeste 13 Noroeste 0 -- -- 47
2020-07-10 10:00:00 24.5 5 Norte 15 Noroeste 0 -- -- 54
2020-07-10 09:00:00 22.8 4 Norte 12 Norte 0 -- -- 63
2020-07-10 08:00:00 20.3 3 Norte 10 Noroeste 0 -- -- 82
2020-07-10 07:00:00 18.3 2 Nordeste 8 Nordeste 0 -- -- 92
2020-07-10 06:00:00 18.7 3 Este 8 Nordeste 0 -- -- 88
2020-07-10 05:00:00 17.5 0 Calma 5 Nordeste 0 -- -- 87
2020-07-10 04:00:00 18 0 Calma 5 Sudeste 0 -- -- 79
2020-07-10 03:00:00 19.7 0 Calma 7 Nordeste 0 -- -- 74
2020-07-10 02:00:00 -- -- -- -- -- -- -- -- --
2020-07-10 01:00:00 20.2 8 Este 14 Este 0 -- -- 75
2020-07-10 00:00:00 20 5 Este 8 Este 0 -- -- 62
2020-07-09 23:00:00 22.5 6 Norte 11 Norte 0 -- -- 54
2020-07-09 22:00:00 23.2 6 Nordeste 26 Este 0 -- -- 49
2020-07-09 21:00:00 24.4 6 Este 36 Este 0 -- -- 46
2020-07-09 20:00:00 26.4 20 Este 36 Este 0 -- -- 38
2020-07-09 19:00:00 28.2 19 Este 39 Este 0 -- -- 33
2020-07-09 18:00:00 29.4 16 Este 38 Nordeste 0 -- -- 34
2020-07-09 17:00:00 29.9 18 Este 39 Este 0 -- -- 29
2020-07-09 16:00:00 29.6 19 Este 33 Este 0 -- -- 34
2020-07-09 15:00:00 30.9 14 Este 30 Este 0 -- -- 29
2020-07-09 14:00:00 31.2 12 Este 26 Este 0 -- -- 27
2020-07-09 13:00:00 30.9 5 Este 27 Este 0 -- -- 27
2020-07-09 12:00:00 30 8 Este 23 Nordeste 0 -- -- 29
2020-07-09 11:00:00 27.5 10 Nordeste 21 Nordeste 0 -- -- 36
2020-07-09 10:00:00 25.5 10 Nordeste 18 Nordeste 0 -- -- 56
2020-07-09 09:00:00 24.1 2 Sur 5 Sur 0 -- -- 56
2020-07-09 08:00:00 20.9 0 Calma 9 Sudeste 0 -- -- 69
2020-07-09 07:00:00 18.5 2 Sudeste 9 Oeste 0 -- -- 64
2020-07-09 06:00:00 18.9 7 Este 12 Este 0 -- -- 59
2020-07-09 05:00:00 19.3 7 Nordeste 10 Este 0 -- -- 78
2020-07-09 04:00:00 21.2 6 Sur 33 Sur 0 -- -- 73
2020-07-09 03:00:00 21.9 18 Sudeste 34 Sudeste 0 -- -- 74
2020-07-09 02:00:00 23.1 0 Calma 19 Nordeste 0 -- -- 73
2020-07-09 01:00:00 23.8 12 Nordeste 50 Sudeste 0.4 -- -- 67
2020-07-09 00:00:00 22.4 10 Sur 34 Sur 0 -- -- 75
2020-07-08 23:00:00 22.1 8 Nordeste 30 Nordeste 0 -- -- 77
2020-07-08 22:00:00 22.7 18 Este 31 Este 0 -- -- 65
2020-07-08 21:00:00 25.7 5 Este 23 Sudoeste 0 -- -- 49
2020-07-08 20:00:00 27.5 5 Sudoeste 25 Este 0 -- -- 44
2020-07-08 19:00:00 27.9 14 Este 27 Este 0 -- -- 40
2020-07-08 18:00:00 28 4 Sudoeste 26 Este 0 -- -- 43
2020-07-08 17:00:00 29.6 13 Sudeste 28 Este 0 -- -- 35
2020-07-08 16:00:00 31.8 9 Sudeste 27 Sur 0 -- -- 28
2020-07-08 15:00:00 31.3 12 Sur 27 Este 0 -- -- 29
2020-07-08 14:00:00 28 18 Este 30 Este 0 -- -- 33
2020-07-08 13:00:00 30.2 11 Este 22 Este 0 -- -- 27
2020-07-08 12:00:00 30.5 7 Sudoeste 21 Sudoeste 0 -- -- 25
2020-07-08 11:00:00 28 3 Noroeste 15 Nordeste 0 -- -- 31
2020-07-08 10:00:00 26.5 5 Nordeste 13 Nordeste 0 -- -- 35
2020-07-08 09:00:00 23.4 0 Calma 8 Nordeste 0 -- -- 51
2020-07-08 08:00:00 18.8 4 Nordeste 8 Nordeste 0 -- -- 72
2020-07-08 07:00:00 16.4 4 Nordeste 6 Nordeste 0 -- -- 80
2020-07-08 06:00:00 16.7 2 Nordeste 6 Nordeste 0 -- -- 79
2020-07-08 05:00:00 17.7 4 Nordeste 7 Nordeste 0 -- -- 81
2020-07-08 04:00:00 17.8 4 Nordeste 7 Nordeste 0 -- -- 71
2020-07-08 03:00:00 18.4 3 Nordeste 5 Nordeste 0 -- -- 68
2020-07-08 02:00:00 20 3 Nordeste 6 Nordeste 0 -- -- 61
2020-07-08 01:00:00 21.1 4 Nordeste 6 Nordeste 0 -- -- 58
2020-07-08 00:00:00 22.3 3 Nordeste 10 Este 0 -- -- 52
2020-07-07 23:00:00 23.4 7 Nordeste 13 Nordeste 0 -- -- 48
2020-07-07 22:00:00 24.8 6 Nordeste 9 Nordeste 0 -- -- 46
2020-07-07 21:00:00 28.3 2 Noroeste 19 Sur 0 -- -- 41
2020-07-07 20:00:00 30.5 9 Sur 22 Sur 0 -- -- 37
2020-07-07 19:00:00 32.4 9 Sur 23 Sur 0 -- -- 33
2020-07-07 18:00:00 32.9 12 Sur 27 Sur 0 -- -- 32
2020-07-07 17:00:00 34 15 Sur 27 Sudoeste 0 -- -- 28
2020-07-07 16:00:00 34.9 13 Sur 27 Sur 0 -- -- 21
2020-07-07 15:00:00 34.9 13 Sur 30 Sudoeste 0 -- -- 16
2020-07-07 14:00:00 34.5 9 Sur 19 Sudoeste 0 -- -- 16
2020-07-07 13:00:00 33.4 7 Sur 19 Sudoeste 0 -- -- 16
2020-07-07 12:00:00 31.7 8 Sudoeste 16 Sudoeste 0 -- -- 16
2020-07-07 11:00:00 30.3 5 Sur 13 Sur 0 -- -- 17
2020-07-07 10:00:00 28.3 4 Sudoeste 12 Sudoeste 0 -- -- 18
2020-07-07 09:00:00 24.5 0 Calma 3 Noroeste 0 -- -- 28
2020-07-07 08:00:00 19 0 Calma 5 Nordeste 0 -- -- 40
2020-07-07 07:00:00 15.5 0 Calma 5 Nordeste 0 -- -- 49
2020-07-07 06:00:00 15.8 3 Nordeste 5 Este 0 -- -- 53
2020-07-07 05:00:00 16.2 3 Nordeste 5 Nordeste 0 -- -- 56
2020-07-07 04:00:00 16.6 0 Calma 6 Nordeste 0 -- -- 58
2020-07-07 03:00:00 17.8 0 Calma 7 Nordeste 0 -- -- 56
2020-07-07 02:00:00 18.3 3 Nordeste 12 Nordeste 0 -- -- 56
2020-07-07 01:00:00 20.1 0 Calma 9 Nordeste 0 -- -- 53
2020-07-07 00:00:00 21 6 Nordeste 9 Este 0 -- -- 49
2020-07-06 23:00:00 22.7 4 Nordeste 8 Noroeste 0 -- -- 44
2020-07-06 22:00:00 25.1 6 Noroeste 12 Noroeste 0 -- -- 35
2020-07-06 21:00:00 26.7 6 Sur 21 Sudoeste 0 -- -- 32
2020-07-06 20:00:00 29.5 8 Sur 21 Sur 0 -- -- 28
2020-07-06 19:00:00 30.7 12 Sur 23 Sur 0 -- -- 26
2020-07-06 18:00:00 31.3 15 Sur 29 Sudoeste 0 -- -- 26
2020-07-06 17:00:00 33.6 10 Sur 28 Sudoeste 0 -- -- 22
2020-07-06 16:00:00 32.9 15 Sur 31 Sur 0 -- -- 28
2020-07-06 15:00:00 33.4 14 Sur 26 Sur 0 -- -- 25
2020-07-06 14:00:00 33.4 14 Sur 27 Sudoeste 0 -- -- 24
2020-07-06 13:00:00 32.9 11 Sudoeste 23 Sudoeste 0 -- -- 22
2020-07-06 12:00:00 32.3 10 Sudoeste 18 Sudoeste 0 -- -- 22
2020-07-06 11:00:00 29.9 10 Sudoeste 17 Sudoeste 0 -- -- 24
2020-07-06 10:00:00 27.3 0 Calma 4 Oeste 0 -- -- 28
2020-07-06 09:00:00 24.5 0 Calma 3 Este 0 -- -- 38
2020-07-06 08:00:00 19.9 0 Calma 5 Nordeste 0 -- -- 59
2020-07-06 07:00:00 15 0 Calma 5 Este 0 -- -- 66
2020-07-06 06:00:00 15 0 Calma 6 Nordeste 0 -- -- 67
2020-07-06 05:00:00 15.4 0 Calma 7 Nordeste 0 -- -- 67
2020-07-06 04:00:00 16 0 Calma 5 Este 0 -- -- 71
2020-07-06 03:00:00 16.7 3 Nordeste 6 Nordeste 0 -- -- 72
2020-07-06 02:00:00 17.2 3 Nordeste 7 Nordeste 0 -- -- 69
2020-07-06 01:00:00 18.7 2 Nordeste 6 Nordeste 0 -- -- 70
2020-07-06 00:00:00 20.1 3 Nordeste 7 Nordeste 0 -- -- 71
2020-07-05 23:00:00 21.9 3 Este 6 Nordeste 0 -- -- 66
2020-07-05 22:00:00 24 4 Norte 10 Sudoeste 0 -- -- 58
2020-07-05 21:00:00 25.6 6 Sudoeste 15 Sudoeste 0 -- -- 52
2020-07-05 20:00:00 27.9 9 Sur 21 Sudoeste 0 -- -- 43
2020-07-05 19:00:00 29.5 10 Sudeste 26 Sur 0 -- -- 39
2020-07-05 18:00:00 30.6 13 Sur 31 Sur 0 -- -- 35
2020-07-05 17:00:00 31.8 11 Sur 27 Sudoeste 0 -- -- 31
2020-07-05 16:00:00 31.9 12 Sur 25 Sudoeste 0 -- -- 31
2020-07-05 15:00:00 32 11 Sudoeste 23 Sur 0 -- -- 30
2020-07-05 14:00:00 31.3 12 Sur 25 Sudoeste 0 -- -- 31
2020-07-05 13:00:00 30.2 12 Sudoeste 22 Sudoeste 0 -- -- 32
2020-07-05 12:00:00 28.9 10 Sudoeste 21 Sur 0 -- -- 33
2020-07-05 11:00:00 27.1 8 Sudoeste 17 Sur 0 -- -- 39
2020-07-05 10:00:00 25.6 2 Sudoeste 10 Sudoeste 0 -- -- 47
2020-07-05 09:00:00 22.8 0 Calma 5 Nordeste 0 -- -- 65
2020-07-05 08:00:00 18.5 2 Nordeste 5 Nordeste 0 -- -- 82
2020-07-05 07:00:00 15 3 Nordeste 6 Nordeste 0 -- -- 91
2020-07-05 06:00:00 15.1 0 Calma 3 Este 0 -- -- 88
2020-07-05 05:00:00 15.3 2 Nordeste 6 Nordeste 0 -- -- 89
2020-07-05 04:00:00 15.8 3 Nordeste 6 Nordeste 0 -- -- 88
2020-07-05 03:00:00 16.7 3 Nordeste 4 Nordeste 0 -- -- 84
2020-07-05 02:00:00 17.8 3 Nordeste 6 Nordeste 0 -- -- 81
2020-07-05 01:00:00 18.6 3 Nordeste 8 Nordeste 0 -- -- 82
2020-07-05 00:00:00 19.5 3 Nordeste 9 Este 0 -- -- 78
2020-07-04 23:00:00 20.5 4 Este 8 Este 0 -- -- 77
2020-07-04 22:00:00 22.5 4 Norte 13 Este 0 -- -- 70
2020-07-04 21:00:00 23.9 9 Este 19 Este 0 -- -- 64
2020-07-04 20:00:00 27.2 9 Sudeste 23 Sur 0 -- -- 52
2020-07-04 19:00:00 28.4 13 Sur 28 Sudoeste 0 -- -- 49
2020-07-04 18:00:00 29.3 15 Sur 30 Sudoeste 0 -- -- 48
2020-07-04 17:00:00 30.8 13 Sur 27 Sur 0 -- -- 45
2020-07-04 16:00:00 30.6 13 Sur 25 Sur 0 -- -- 44
2020-07-04 15:00:00 30.5 10 Sudoeste 23 Sur 0 -- -- 42
2020-07-04 14:00:00 30 10 Sur 22 Sudoeste 0 -- -- 43
2020-07-04 13:00:00 29 10 Sur 21 Sudoeste 0 -- -- 47
2020-07-04 12:00:00 28.1 11 Sur 23 Sudoeste 0 -- -- 50
2020-07-04 11:00:00 26.5 5 Sudoeste 16 Sudoeste 0 -- -- 53
2020-07-04 10:00:00 24.2 2 Este 8 Nordeste 0 -- -- 64
2020-07-04 09:00:00 23.6 3 Nordeste 7 Norte 0 -- -- 69
2020-07-04 08:00:00 19.7 2 Nordeste 5 Nordeste 0 -- -- 83
2020-07-04 07:00:00 18 5 Nordeste 6 Nordeste 0 -- -- 90
2020-07-04 06:00:00 19.4 0 Calma 4 Nordeste 0 -- -- 87
2020-07-04 05:00:00 20.4 0 Calma 4 Sudoeste 0 -- -- 86
2020-07-04 04:00:00 20.4 2 Este 4 Este 0 -- -- 89
2020-07-04 03:00:00 20.6 0 Calma 8 Sudoeste 0 -- -- 86
2020-07-04 02:00:00 20.7 4 Sur 8 Sur 0 -- -- 88
2020-07-04 01:00:00 20.6 2 Sur 7 Sudoeste 0 -- -- 89
2020-07-04 00:00:00 20.4 2 Este 5 Este 0 -- -- 86
2020-07-03 23:00:00 20.9 0 Calma 9 Nordeste 0 -- -- 83
2020-07-03 22:00:00 21.6 5 Nordeste 12 Sudeste 0 -- -- 81
2020-07-03 21:00:00 22.7 5 Este 22 Sudeste 0 -- -- 76
2020-07-03 20:00:00 23.8 8 Este 27 Este 0 -- -- 71
2020-07-03 19:00:00 25 14 Sudeste 31 Este 0 -- -- 68
2020-07-03 18:00:00 27.9 14 Sudeste 36 Sudeste 0 -- -- 55
2020-07-03 17:00:00 28.2 13 Sudeste 28 Este 0 -- -- 53
2020-07-03 16:00:00 28.1 14 Sudeste 27 Este 0 -- -- 56
2020-07-03 15:00:00 26.6 13 Este 33 Este 0 -- -- 57
2020-07-03 14:00:00 29.3 10 Sur 26 Sudoeste 0 -- -- 45
2020-07-03 13:00:00 29.9 9 Sur 26 Sur 0 -- -- 44
2020-07-03 12:00:00 29.4 6 Sudeste 19 Nordeste 0 -- -- 40
2020-07-03 11:00:00 27.4 7 Nordeste 19 Nordeste 0 -- -- 50
2020-07-03 10:00:00 25.5 10 Nordeste 22 Nordeste 0 -- -- 59
2020-07-03 09:00:00 23.8 11 Nordeste 19 Nordeste 0 -- -- 66
2020-07-03 08:00:00 20.5 6 Nordeste 10 Nordeste 0 -- -- 90
2020-07-03 07:00:00 17.9 4 Nordeste 5 Este 0 -- -- 96
2020-07-03 06:00:00 17.7 3 Nordeste 6 Nordeste 0 -- -- 96
2020-07-03 05:00:00 19.1 2 Nordeste 10 Norte 0 -- -- 96
2020-07-03 04:00:00 19.5 4 Norte 9 Norte 0 -- -- 95
2020-07-03 03:00:00 20 5 Este 9 Este 0 -- -- 93
2020-07-03 02:00:00 19.7 3 Nordeste 5 Nordeste 0 -- -- 87
2020-07-03 01:00:00 20.2 3 Nordeste 6 Nordeste 0 -- -- 84
2020-07-03 00:00:00 21.7 0 Calma 6 Nordeste 0 -- -- 79
2020-07-02 23:00:00 23.2 4 Nordeste 17 Nordeste 0 -- -- 78
2020-07-02 22:00:00 24.1 6 Nordeste 13 Sur 0 -- -- 75
2020-07-02 21:00:00 26.9 7 Sur 24 Sudoeste 0 -- -- 61
2020-07-02 20:00:00 28.6 11 Sur 22 Sudoeste 0 -- -- 54
2020-07-02 19:00:00 30.4 10 Sur 25 Sur 0 -- -- 47
2020-07-02 18:00:00 31.8 10 Sur 33 Sur 0 -- -- 43
2020-07-02 17:00:00 33 18 Sur 32 Sur 0 -- -- 38
2020-07-02 16:00:00 34.5 16 Sur 35 Sur 0 -- -- 31
2020-07-02 15:00:00 36 16 Sur 30 Oeste 0 -- -- 25
2020-07-02 14:00:00 35.6 13 Sudoeste 32 Sudoeste 0 -- -- 15
2020-07-02 13:00:00 34.7 11 Oeste 26 Sudoeste 0 -- -- 16
2020-07-02 12:00:00 33 4 Norte 12 Nordeste 0 -- -- 20
2020-07-02 11:00:00 31.9 2 Oeste 7 Norte 0 -- -- 22
2020-07-02 10:00:00 29 3 Noroeste 9 Noroeste 0 -- -- 26
2020-07-02 09:00:00 26.9 0 Calma 6 Noroeste 0 -- -- 27
2020-07-02 08:00:00 20.3 3 Nordeste 6 Nordeste 0 -- -- 43
2020-07-02 07:00:00 18.7 0 Calma 7 Sur 0 -- -- 44
2020-07-02 06:00:00 21.4 3 Sur 11 Sudoeste 0 -- -- 33
2020-07-02 05:00:00 22.6 3 Sur 13 Oeste 0 -- -- 30
2020-07-02 04:00:00 21.3 0 Calma 7 Oeste 0 -- -- 37
2020-07-02 03:00:00 19.9 0 Calma 8 Este 0 -- -- 44
2020-07-02 02:00:00 19.3 6 Nordeste 12 Nordeste 0 -- -- 58
2020-07-02 01:00:00 19.7 3 Nordeste 6 Nordeste 0 -- -- 60
2020-07-02 00:00:00 21.8 0 Calma 6 Nordeste 0 -- -- 52
2020-07-01 23:00:00 24.9 0 Calma 6 Este 0 -- -- 45
2020-07-01 22:00:00 28.7 4 Sudeste 13 Sudoeste 0 -- -- 34
2020-07-01 21:00:00 31.5 6 Sur 22 Sudeste 0 -- -- 28
2020-07-01 20:00:00 33.6 11 Sur 28 Sur 0 -- -- 25
2020-07-01 19:00:00 35 13 Sur 33 Sudeste 0 -- -- 23
2020-07-01 18:00:00 35.6 16 Sur 34 Sudoeste 0 -- -- 26
2020-07-01 17:00:00 36.8 13 Sur 30 Sudoeste 0 -- -- 17
2020-07-01 16:00:00 38 13 Sudoeste 35 Sudoeste 0 -- -- --
2020-07-01 15:00:00 37.4 9 Oeste 26 Oeste 0 -- -- 14
2020-07-01 14:00:00 36.3 7 Oeste 25 Sudoeste 0 -- -- 17
2020-07-01 13:00:00 35.6 9 Oeste 23 Sudoeste 0 -- -- 15
2020-07-01 12:00:00 33.3 8 Oeste 23 Oeste 0 -- -- 24
2020-07-01 11:00:00 31 10 Sudoeste 19 Sudoeste 0 -- -- 29
2020-07-01 10:00:00 28.9 8 Sudoeste 17 Sudoeste 0 -- -- 32
2020-07-01 09:00:00 25.7 5 Sudoeste 9 Sudoeste 0 -- -- 37
2020-07-01 08:00:00 19.1 0 Calma 5 Nordeste 0 -- -- 52
2020-07-01 07:00:00 15 0 Calma 4 Nordeste 0 -- -- 64
2020-07-01 06:00:00 15.1 0 Calma 5 Nordeste 0 -- -- 62
2020-07-01 05:00:00 15.7 0 Calma 4 Nordeste 0 -- -- 58
2020-07-01 04:00:00 16.4 3 Nordeste 5 Nordeste 0 -- -- 54
2020-07-01 03:00:00 16.8 0 Calma 4 Nordeste 0 -- -- 53
2020-07-01 02:00:00 18 3 Este 5 Nordeste 0 -- -- 48
2020-07-01 01:00:00 19.8 0 Calma 9 Sudeste 0 -- -- 45
2020-07-01 00:00:00 21.7 4 Este 11 Este 0 -- -- 40
2020-06-30 23:00:00 22.8 7 Este 12 Nordeste 0 -- -- 37
2020-06-30 22:00:00 24.3 9 Nordeste 12 Nordeste 0 -- -- 37
2020-06-30 21:00:00 27.1 8 Nordeste 19 Nordeste 0 -- -- 28
2020-06-30 20:00:00 29.5 12 Nordeste 20 Nordeste 0 -- -- 26
2020-06-30 19:00:00 30.9 12 Este 23 Este 0 -- -- 22
2020-06-30 18:00:00 31.9 13 Este 28 Este 0 -- -- 23
2020-06-30 17:00:00 32 12 Este 27 Este 0 -- -- 24
2020-06-30 16:00:00 32 12 Sudeste 27 Este 0 -- -- 22
2020-06-30 15:00:00 32.7 12 Este 29 Este 0 -- -- 22
2020-06-30 14:00:00 32 16 Este 29 Este 0 -- -- 24
2020-06-30 13:00:00 31.6 12 Este 26 Este 0 -- -- 28
2020-06-30 12:00:00 30.8 9 Este 22 Nordeste 0 -- -- 24
2020-06-30 11:00:00 28.9 14 Nordeste 23 Nordeste 0 -- -- 23
2020-06-30 10:00:00 27.4 3 Nordeste 10 Nordeste 0 -- -- 33
2020-06-30 09:00:00 23.3 6 Nordeste 9 Nordeste 0 -- -- 44
2020-06-30 08:00:00 18.6 6 Nordeste 9 Nordeste 0 -- -- 55
2020-06-30 07:00:00 15.7 3 Este 7 Nordeste 0 -- -- 70
2020-06-30 06:00:00 15.2 3 Nordeste 6 Nordeste 0 -- -- 59
2020-06-30 05:00:00 15.7 3 Nordeste 6 Nordeste 0 -- -- 58
2020-06-30 04:00:00 16.2 3 Nordeste 5 Nordeste 0 -- -- 57
2020-06-30 03:00:00 16.9 3 Nordeste 6 Nordeste 0 -- -- 54
2020-06-30 02:00:00 18 3 Nordeste 5 Nordeste 0 -- -- 50
2020-06-30 01:00:00 19.4 0 Calma 6 Nordeste 0 -- -- 47
2020-06-30 00:00:00 21.2 4 Nordeste 8 Este 0 -- -- 41
2020-06-29 23:00:00 22.9 4 Este 9 Nordeste 0 -- -- 38
2020-06-29 22:00:00 25.6 2 Este 12 Nordeste 0 -- -- 37
2020-06-29 21:00:00 27.2 7 Nordeste 15 Nordeste 0 -- -- 34
2020-06-29 20:00:00 30 12 Este 20 Sudoeste 0 -- -- 29
2020-06-29 19:00:00 32.3 10 Sudoeste 23 Sudoeste 0 -- -- 24
2020-06-29 18:00:00 32.5 14 Sur 30 Sur 0 -- -- 24
2020-06-29 17:00:00 32.5 17 Sur 28 Sudoeste 0 -- -- 28
2020-06-29 16:00:00 33.1 13 Sudoeste 26 Sudoeste 0 -- -- 25
2020-06-29 15:00:00 32.6 12 Sur 26 Sudoeste 0 -- -- 27
2020-06-29 14:00:00 32.2 12 Sudoeste 22 Sur 0 -- -- 32
2020-06-29 13:00:00 31.6 13 Sur 26 Sur 0 -- -- 31
2020-06-29 12:00:00 32 9 Sudoeste 21 Sur 0 -- -- 23
2020-06-29 11:00:00 31.5 6 Sur 15 Sudeste 0 -- -- 22
2020-06-29 10:00:00 28.9 5 Sudoeste 10 Sudoeste 0 -- -- 25
2020-06-29 09:00:00 25.7 0 Calma 6 Norte 0 -- -- 36
2020-06-29 08:00:00 19.5 0 Calma 5 Nordeste 0 -- -- 56
2020-06-29 07:00:00 15.3 0 Calma 5 Nordeste 0 -- -- 69
2020-06-29 06:00:00 15.1 0 Calma 2 Nordeste 0 -- -- 71
2020-06-29 05:00:00 15.5 0 Calma 3 Norte 0 -- -- 68
2020-06-29 04:00:00 16.4 0 Calma 6 Nordeste 0 -- -- 65
2020-06-29 03:00:00 17.2 3 Este 6 Nordeste 0 -- -- 66
2020-06-29 02:00:00 18 0 Calma 4 Nordeste 0 -- -- 62
2020-06-29 01:00:00 19.4 0 Calma 5 Este 0 -- -- 68
2020-06-29 00:00:00 21.2 3 Este 8 Nordeste 0 -- -- 71
2020-06-28 23:00:00 22.7 3 Nordeste 8 Oeste 0 -- -- 57
2020-06-28 22:00:00 25.2 3 Oeste 12 Sur 0 -- -- 40
2020-06-28 21:00:00 27 4 Sur 17 Sur 0 -- -- 31
2020-06-28 20:00:00 29.5 8 Sur 23 Sur 0 -- -- 29
2020-06-28 19:00:00 31.2 9 Sur 24 Sudoeste 0 -- -- 27
2020-06-28 18:00:00 31.8 13 Sur 30 Sudoeste 0 -- -- 31
2020-06-28 17:00:00 32.9 13 Sur 30 Sur 0 -- -- 27
2020-06-28 16:00:00 33.5 11 Sur 26 Sudoeste 0 -- -- 27
2020-06-28 15:00:00 32.6 10 Sur 23 Sudoeste 0 -- -- 28
2020-06-28 14:00:00 32.6 10 Sudoeste 22 Sudoeste 0 -- -- 27
2020-06-28 13:00:00 31.4 10 Sur 24 Sur 0 -- -- 30
2020-06-28 12:00:00 30.6 8 Sudoeste 18 Sudoeste 0 -- -- 26
2020-06-28 11:00:00 29.2 9 Sudoeste 15 Sur 0 -- -- 28
2020-06-28 10:00:00 26.8 2 Sudoeste 5 Norte 0 -- -- 32
2020-06-28 09:00:00 24.5 0 Calma 5 Este 0 -- -- 53
2020-06-28 08:00:00 20.5 3 Este 7 Este 0 -- -- 67
2020-06-28 07:00:00 16.3 4 Este 6 Nordeste 0 -- -- 67
2020-06-28 06:00:00 15.4 4 Nordeste 6 Nordeste 0 -- -- 68
2020-06-28 05:00:00 15.4 4 Nordeste 6 Nordeste 0 -- -- 70
2020-06-28 04:00:00 16.1 0 Calma 4 Nordeste 0 -- -- 71
2020-06-28 03:00:00 17.1 3 Nordeste 7 Nordeste 0 -- -- 70
2020-06-28 02:00:00 17.6 4 Nordeste 5 Nordeste 0 -- -- 70
2020-06-28 01:00:00 19.2 0 Calma 5 Este 0 -- -- 67
2020-06-28 00:00:00 20.7 4 Nordeste 9 Nordeste 0 -- -- 66
2020-06-27 23:00:00 21.6 6 Nordeste 9 Este 0 -- -- 63
2020-06-27 22:00:00 23.5 7 Nordeste 13 Nordeste 0 -- -- 59
2020-06-27 21:00:00 26.4 8 Sur 24 Sur 0 -- -- 44
2020-06-27 20:00:00 28.4 15 Sur 29 Sur 0 -- -- 37
2020-06-27 19:00:00 30 14 Sur 33 Sur 0 -- -- 36
2020-06-27 18:00:00 31.4 17 Sur 31 Sudoeste 0 -- -- 33
2020-06-27 17:00:00 32.6 17 Sur 31 Sur 0 -- -- 29
2020-06-27 16:00:00 33 11 Sur 25 Sudoeste 0 -- -- 24
2020-06-27 15:00:00 34.1 4 Sudoeste 23 Sudoeste 0 -- -- 16
2020-06-27 14:00:00 32.8 9 Sudoeste 25 Sudoeste 0 -- -- 19
2020-06-27 13:00:00 31.9 0 Calma 14 Sudoeste 0 -- -- 20
2020-06-27 12:00:00 30.4 6 Noroeste 13 Norte 0 -- -- 21
2020-06-27 11:00:00 29.1 3 Sudoeste 12 Oeste 0 -- -- 23
2020-06-27 10:00:00 26.5 4 Noroeste 11 Norte 0 -- -- 25
2020-06-27 09:00:00 25.3 5 Nordeste 11 Nordeste 0 -- -- 28
2020-06-27 08:00:00 22 3 Nordeste 7 Nordeste 0 -- -- 38
2020-06-27 07:00:00 16.5 0 Calma 4 Oeste 0 -- -- 69
2020-06-27 06:00:00 16.5 0 Calma 7 Sur 0 -- -- 79
2020-06-27 05:00:00 17.9 0 Calma 10 Sur 0 -- -- 82
2020-06-27 04:00:00 17.6 0 Calma 9 Noroeste 0 -- -- 85
2020-06-27 03:00:00 17.9 0 Calma 4 Nordeste 0 -- -- 81
2020-06-27 02:00:00 19.2 3 Nordeste 8 Noroeste 0 -- -- 81
2020-06-27 01:00:00 19.5 2 Nordeste 5 Nordeste 0 -- -- 75
2020-06-27 00:00:00 20.3 4 Nordeste 6 Nordeste 0 -- -- 82
2020-06-26 23:00:00 21.4 5 Este 10 Sudoeste 0 -- -- 77
2020-06-26 22:00:00 23.2 6 Sudoeste 12 Este 0 -- -- 69
2020-06-26 21:00:00 25.6 6 Sudeste 18 Sudoeste 0 -- -- 44
2020-06-26 20:00:00 26.9 10 Sur 24 Sur 0 -- -- 37
2020-06-26 19:00:00 29.3 10 Sur 47 Sur 0 -- -- 32
2020-06-26 18:00:00 30.4 9 Sudeste 21 Este 0 -- -- 31
2020-06-26 17:00:00 30.5 13 Este 24 Este 0 -- -- 30
2020-06-26 16:00:00 31.7 10 Sur 29 Sur 0 -- -- 30
2020-06-26 15:00:00 32.1 6 Sudoeste 19 Sur 0 -- -- 26
2020-06-26 14:00:00 31.3 0 Calma 21 Este 0 -- -- 26
2020-06-26 13:00:00 30.4 8 Este 23 Nordeste 0 -- -- 26
2020-06-26 12:00:00 29.1 9 Este 18 Este 0 -- -- 29
2020-06-26 11:00:00 26.8 4 Oeste 15 Oeste 0 -- -- 38
2020-06-26 10:00:00 24.5 2 Sudoeste 7 Sudoeste 0 -- -- 48
2020-06-26 09:00:00 22.1 3 Nordeste 8 Nordeste 0 -- -- 61
2020-06-26 08:00:00 18.4 3 Nordeste 6 Este 0 -- -- 80
2020-06-26 07:00:00 14.5 3 Este 6 Nordeste 0 -- -- 79
2020-06-26 06:00:00 16.6 3 Este 7 Nordeste 0 -- -- 78
2020-06-26 05:00:00 16.6 4 Nordeste 9 Nordeste 0 -- -- 75
2020-06-26 04:00:00 16.2 4 Nordeste 7 Nordeste 0 -- -- 73
2020-06-26 03:00:00 17 3 Nordeste 7 Nordeste 0 -- -- 70
2020-06-26 02:00:00 17.9 3 Nordeste 6 Este 0 -- -- 68
2020-06-26 01:00:00 19.7 4 Este 11 Norte 0 -- -- 63
2020-06-26 00:00:00 21.1 6 Nordeste 21 Este 0 -- -- 57
2020-06-25 23:00:00 22.5 9 Este 19 Este 0 -- -- 44
2020-06-25 22:00:00 24.2 13 Este 21 Este 0 -- -- 35
2020-06-25 21:00:00 25.9 10 Este 23 Este 0 -- -- 30
2020-06-25 20:00:00 27.6 14 Este 28 Este 0 -- -- 26
2020-06-25 19:00:00 29.4 15 Este 31 Este 0 -- -- 22
2020-06-25 18:00:00 30.5 15 Este 31 Este 0 -- -- 21
2020-06-25 17:00:00 31.4 16 Este 37 Este 0 -- -- 20
2020-06-25 16:00:00 31.7 14 Este 28 Sudeste 0 -- -- 20
2020-06-25 15:00:00 30.9 18 Este 31 Este 0 -- -- 21
2020-06-25 14:00:00 30.6 15 Este 36 Este 0 -- -- 26
2020-06-25 13:00:00 29.8 14 Este 28 Nordeste 0 -- -- 27
2020-06-25 12:00:00 29.2 14 Este 23 Nordeste 0 -- -- 26
2020-06-25 11:00:00 27.8 11 Nordeste 18 Este 0 -- -- 33
2020-06-25 10:00:00 24.5 3 Norte 9 Noroeste 0 -- -- 51
2020-06-25 09:00:00 21.5 5 Norte 10 Nordeste 0 -- -- 72
2020-06-25 08:00:00 18.4 3 Nordeste 8 Nordeste 0 -- -- 91
2020-06-25 07:00:00 17 0 Calma 6 Sudeste 0 -- -- 96
2020-06-25 06:00:00 17.1 0 Calma 5 Este 0 -- -- 95
2020-06-25 05:00:00 16.8 2 Este 6 Nordeste 0 -- -- 89
2020-06-25 04:00:00 16.8 2 Este 9 Norte 0 -- -- 79
2020-06-25 03:00:00 15.9 5 Nordeste 8 Nordeste 0 -- -- 68
2020-06-25 02:00:00 16.9 5 Nordeste 8 Nordeste 0 -- -- 72
2020-06-25 01:00:00 18.5 4 Nordeste 7 Nordeste 0 -- -- 67
2020-06-25 00:00:00 19.3 5 Nordeste 8 Nordeste 0 -- -- 67
2020-06-24 23:00:00 20.7 2 Sur 16 Nordeste 0 -- -- 67
2020-06-24 22:00:00 -- 8 Nordeste 17 Nordeste 0 -- -- --
2020-06-24 21:00:00 24.1 8 Nordeste 15 Sur 0 -- -- 53
2020-06-24 20:00:00 28 9 Sur 24 Sur 0 -- -- 38
2020-06-24 19:00:00 30.4 11 Sur 24 Sur 0 -- -- 31
2020-06-24 18:00:00 31.8 12 Sur 23 Sudoeste 0 -- -- 28
2020-06-24 17:00:00 31.8 6 Nordeste 19 Nordeste 0 -- -- 23
2020-06-24 16:00:00 28.5 4 Nordeste 17 Sudoeste 0 -- -- 28
2020-06-24 15:00:00 27.6 6 Sur 24 Nordeste 0 -- -- 32
2020-06-24 14:00:00 26.1 0 Calma 19 Este 0 -- -- 33
2020-06-24 13:00:00 26 14 Este 29 Nordeste 0 -- -- 30
2020-06-24 12:00:00 26 4 Nordeste 23 Sudoeste 0 -- -- 36
2020-06-24 11:00:00 26 11 Sudoeste 20 Sudoeste 0 -- -- 35
2020-06-24 10:00:00 24.1 8 Sudoeste 14 Sudoeste 0 -- -- 46
2020-06-24 09:00:00 22.1 3 Norte 8 Nordeste 0 -- -- 59
2020-06-24 08:00:00 18.5 2 Este 8 Nordeste 0 -- -- 75
2020-06-24 07:00:00 15.7 5 Nordeste 14 Norte 0 -- -- 79
2020-06-24 06:00:00 15.2 7 Nordeste 11 Nordeste 0 -- -- 81
2020-06-24 05:00:00 15.9 2 Norte 8 Este 0 -- -- 79
2020-06-24 04:00:00 15.4 3 Norte 6 Nordeste 0 -- -- 86
2020-06-24 03:00:00 15.6 2 Nordeste 7 Nordeste 0 -- -- 83
2020-06-24 02:00:00 16.7 4 Nordeste 9 Nordeste 0 -- -- 80
2020-06-24 01:00:00 17.4 2 Sudoeste 6 Sudoeste 0 -- -- 76
2020-06-24 00:00:00 18.2 0 Calma 9 Nordeste 0 -- -- 74
2020-06-23 23:00:00 20.1 4 Este 9 Nordeste 0 -- -- 68
2020-06-23 22:00:00 21.3 7 Nordeste 17 Nordeste 0 -- -- 62
2020-06-23 21:00:00 23.9 7 Nordeste 14 Nordeste 0 -- -- 51
2020-06-23 20:00:00 26.8 6 Nordeste 15 Nordeste 0 -- -- 39
2020-06-23 19:00:00 28.6 6 Este 22 Este 0 -- -- 34
2020-06-23 18:00:00 29.3 6 Este 24 Este 0 -- -- 32
2020-06-23 17:00:00 29.5 8 Este 26 Nordeste 0 -- -- 32
2020-06-23 16:00:00 29.8 7 Este 21 Este 0 -- -- 31
2020-06-23 15:00:00 29.7 10 Este 26 Nordeste 0 -- -- 31
2020-06-23 14:00:00 29.7 7 Sudeste 28 Sudeste 0 -- -- 31
2020-06-23 13:00:00 29.1 5 Sur 28 Sudeste 0 -- -- 30
2020-06-23 12:00:00 27.4 8 Este 48 Este 0 -- -- 35
2020-06-23 11:00:00 26.5 6 Sudeste 19 Sur 0 -- -- 34
2020-06-23 10:00:00 24.2 4 Oeste 8 Sudoeste 0 -- -- 44
2020-06-23 09:00:00 22.4 0 Calma 3 Sudoeste 0 -- -- 52
2020-06-23 08:00:00 17.7 0 Calma 6 Este 0 -- -- 70
2020-06-23 07:00:00 14.1 2 Nordeste 5 Nordeste 0 -- -- 82
2020-06-23 06:00:00 14.4 0 Calma 4 Nordeste 0 -- -- 82
2020-06-23 05:00:00 15.5 2 Norte 5 Norte 0 -- -- 81
2020-06-23 04:00:00 15.6 4 Nordeste 9 Nordeste 0 -- -- 83
2020-06-23 03:00:00 16.6 6 Nordeste 10 Nordeste 0 -- -- 80
2020-06-23 02:00:00 17.3 0 Calma 6 Este 0 -- -- 79
2020-06-23 01:00:00 17.7 3 Nordeste 8 Nordeste 0 -- -- 79
2020-06-23 00:00:00 18.2 6 Nordeste 10 Nordeste 0 -- -- 75
2020-06-22 23:00:00 19.2 6 Nordeste 12 Nordeste 0 -- -- 71
2020-06-22 22:00:00 20.9 5 Nordeste 14 Este 0 -- -- 58
2020-06-22 21:00:00 23 9 Este 19 Este 0 -- -- 49
2020-06-22 20:00:00 25 10 Este 23 Este 0 -- -- 43
2020-06-22 19:00:00 26.9 12 Este 24 Este 0 -- -- 35
2020-06-22 18:00:00 27.6 14 Este 26 Sudeste 0 -- -- 31
2020-06-22 17:00:00 29.6 9 Sudeste 27 Este 0 -- -- 27
2020-06-22 16:00:00 29.6 12 Sudeste 32 Este 0 -- -- 31
2020-06-22 15:00:00 29.1 13 Este 49 Este 0 -- -- 31
2020-06-22 14:00:00 29.4 8 Sudeste 25 Este 0 -- -- 33
2020-06-22 13:00:00 29.1 6 Sudeste 23 Este 0 -- -- 35
2020-06-22 12:00:00 28.4 12 Este 23 Este 0 -- -- 35
2020-06-22 11:00:00 27.1 15 Nordeste 24 Este 0 -- -- 35
2020-06-22 10:00:00 25.6 3 Oeste 10 Sudoeste 0 -- -- 45
2020-06-22 09:00:00 23.7 4 Nordeste 13 Nordeste 0 -- -- 57
2020-06-22 08:00:00 19.2 3 Nordeste 6 Nordeste 0 -- -- 68
2020-06-22 07:00:00 17.5 3 Este 10 Nordeste 0 -- -- 74
2020-06-22 06:00:00 15.6 0 Calma 9 Nordeste 0 -- -- 76
2020-06-22 05:00:00 15.3 0 Calma 5 Nordeste 0 -- -- 75
2020-06-22 04:00:00 16 3 Nordeste 9 Nordeste 0 -- -- 72
2020-06-22 03:00:00 17.8 3 Nordeste 10 Nordeste 0 -- -- 68
2020-06-22 02:00:00 18.2 4 Nordeste 8 Nordeste 0 -- -- 63
2020-06-22 01:00:00 19.3 5 Nordeste 8 Este 0 -- -- 61
2020-06-22 00:00:00 19.6 4 Nordeste 7 Nordeste 0 -- -- 56
2020-06-21 23:00:00 21.7 2 Nordeste 8 Nordeste 0 -- -- 53
2020-06-21 22:00:00 23.7 6 Este 13 Nordeste 0 -- -- 47
2020-06-21 21:00:00 27.3 0 Calma 13 Sudoeste 0 -- -- 37
2020-06-21 20:00:00 29.6 6 Sudoeste 16 Sur 0 -- -- 26
2020-06-21 19:00:00 30.7 8 Sudoeste 21 Sur 0 -- -- 28
2020-06-21 18:00:00 31.4 12 Sur 26 Sur 0 -- -- 30
2020-06-21 17:00:00 33 10 Sur 25 Sur 0 -- -- 26
2020-06-21 16:00:00 33 13 Sur 27 Sur 0 -- -- 29
2020-06-21 15:00:00 32.9 14 Sur 28 Sur 0 -- -- 32
2020-06-21 14:00:00 32.7 14 Sur 30 Sudoeste 0 -- -- 30
2020-06-21 13:00:00 33.2 11 Sudoeste 22 Sur 0 -- -- 23
2020-06-21 12:00:00 32.4 6 Sudoeste 18 Sur 0 -- -- 20
2020-06-21 11:00:00 29.4 6 Sudoeste 13 Sudoeste 0 -- -- 27
2020-06-21 10:00:00 27.3 6 Sudoeste 13 Sudoeste 0 -- -- 33
2020-06-21 09:00:00 24 2 Sudoeste 4 Sudoeste 0 -- -- 41
2020-06-21 08:00:00 17.9 0 Calma 6 Nordeste 0 -- -- 64
2020-06-21 07:00:00 13.8 4 Nordeste 5 Nordeste 0 -- -- 75
2020-06-21 06:00:00 13.9 3 Nordeste 6 Nordeste 0 -- -- 76
2020-06-21 05:00:00 14.6 0 Calma 2 Norte 0 -- -- 78
2020-06-21 04:00:00 15.2 0 Calma 4 Nordeste 0 -- -- 81
2020-06-21 03:00:00 15.8 0 Calma 4 Este 0 -- -- 78
2020-06-21 02:00:00 16.8 0 Calma 5 Este 0 -- -- 73
2020-06-21 01:00:00 18 0 Calma 6 Nordeste 0 -- -- 71
2020-06-21 00:00:00 19.7 3 Nordeste 8 Nordeste 0 -- -- 68
2020-06-20 23:00:00 20.9 3 Nordeste 13 Este 0 -- -- 66
2020-06-20 22:00:00 22 4 Nordeste 14 Nordeste 0 -- -- 62
2020-06-20 21:00:00 25.5 3 Sur 21 Sur 0 -- -- 36
2020-06-20 20:00:00 27.8 9 Sur 26 Sudoeste 0 -- -- 32
2020-06-20 19:00:00 29.2 13 Sur 31 Sudoeste 0 -- -- 32
2020-06-20 18:00:00 29.8 15 Sur 28 Sur 0 -- -- 32
2020-06-20 17:00:00 30.3 15 Sur 29 Sur 0 -- -- 35
2020-06-20 16:00:00 31 13 Sur 30 Sudoeste 0 -- -- 35
2020-06-20 15:00:00 30.8 12 Sur 24 Sur 0 -- -- 32
2020-06-20 14:00:00 30.3 13 Sur 25 Sudoeste 0 -- -- 34
2020-06-20 13:00:00 29.7 9 Sudoeste 18 Sudoeste 0 -- -- 33
2020-06-20 12:00:00 28.4 5 Sudoeste 17 Sudoeste 0 -- -- 34
2020-06-20 11:00:00 26.5 4 Sudoeste 12 Sudoeste 0 -- -- 41
2020-06-20 10:00:00 23.5 5 Sudoeste 11 Sudoeste 0 -- -- 53
2020-06-20 09:00:00 20.8 0 Calma 3 Oeste 0 -- -- 63
2020-06-20 08:00:00 16.3 0 Calma 4 Nordeste 0 -- -- 78
2020-06-20 07:00:00 12.7 4 Nordeste 6 Nordeste 0 -- -- 94
2020-06-20 06:00:00 12.8 0 Calma 3 Este 0 -- -- 90
2020-06-20 05:00:00 13.6 0 Calma 5 Nordeste 0 -- -- 93
2020-06-20 04:00:00 14 2 Nordeste 7 Nordeste 0 -- -- 89
2020-06-20 03:00:00 14.2 4 Nordeste 6 Nordeste 0 -- -- 88
2020-06-20 02:00:00 15.3 3 Nordeste 5 Nordeste 0 -- -- 86
2020-06-20 01:00:00 16.3 3 Nordeste 6 Este 0 -- -- 87
2020-06-20 00:00:00 17.3 3 Nordeste 7 Nordeste 0 -- -- 79
2020-06-19 23:00:00 18.7 0 Calma 8 Sudoeste 0 -- -- 71
2020-06-19 22:00:00 20.1 4 Sudoeste 12 Este 0 -- -- 70
2020-06-19 21:00:00 21.7 5 Sudeste 17 Sudeste 0 -- -- 66
2020-06-19 20:00:00 24.1 7 Sudeste 23 Sur 0 -- -- 55
2020-06-19 19:00:00 25.4 13 Sur 32 Sur 0 -- -- 50
2020-06-19 18:00:00 26.4 15 Sur 31 Sur 0 -- -- 46
2020-06-19 17:00:00 27.4 15 Sur 28 Sur 0 -- -- 46
2020-06-19 16:00:00 28.5 10 Sur 24 Sur 0 -- -- 41
2020-06-19 15:00:00 27.3 9 Sudoeste 22 Sudoeste 0 -- -- 46
2020-06-19 14:00:00 27.5 5 Sur 13 Sur 0 -- -- 42
2020-06-19 13:00:00 25.1 5 Sur 15 Sudoeste 0 -- -- 50
2020-06-19 12:00:00 22.5 7 Sudoeste 15 Sudoeste 0 -- -- 60
2020-06-19 11:00:00 21.2 6 Sudoeste 16 Sudoeste 0 -- -- 63
2020-06-19 10:00:00 20.5 5 Sudoeste 10 Sudoeste 0 -- -- 66
2020-06-19 09:00:00 19.8 3 Sur 9 Nordeste 0 -- -- 75
2020-06-19 08:00:00 19.2 5 Nordeste 14 Nordeste 0 -- -- 84
2020-06-19 07:00:00 18 8 Nordeste 15 Nordeste 0 -- -- 89
2020-06-19 06:00:00 18 3 Este 11 Sudeste 0 -- -- 85
2020-06-19 05:00:00 18.3 8 Sudeste 16 Sur 0 -- -- 82
2020-06-19 04:00:00 18.4 8 Sur 16 Sur 0 -- -- 87
2020-06-19 03:00:00 18.7 0 Calma 5 Sur 0 -- -- 84
2020-06-19 02:00:00 18.7 0 Calma 4 Sur 0 -- -- 83
2020-06-19 01:00:00 18.4 3 Sudeste 11 Nordeste 0 -- -- 84
2020-06-19 00:00:00 18.4 6 Norte 13 Nordeste 0 -- -- 84
2020-06-18 23:00:00 18.2 2 Este 9 Nordeste 0 -- -- 86
2020-06-18 22:00:00 18.9 6 Este 12 Este 0 -- -- 81
2020-06-18 21:00:00 20 7 Nordeste 15 Este 0 -- -- 75
2020-06-18 20:00:00 21.1 10 Este 23 Este 0 -- -- 68
2020-06-18 19:00:00 24.7 12 Este 24 Sudeste 0 -- -- 55
2020-06-18 18:00:00 25.3 15 Sudeste 26 Sudeste 0 -- -- 53
2020-06-18 17:00:00 27.6 2 Sur 23 Sudoeste 0 -- -- 46
2020-06-18 16:00:00 25.2 6 Este 22 Este 0 -- -- 51
2020-06-18 15:00:00 26.1 13 Este 29 Sur 0 -- -- 50
2020-06-18 14:00:00 -- 0 Calma -- -- -- -- -- --
2020-06-18 13:00:00 28 0 Calma 16 Este 0 -- -- 36
2020-06-18 12:00:00 25.5 7 Nordeste 14 Nordeste 0 -- -- 44
2020-06-18 11:00:00 23.2 5 Nordeste 11 Nordeste 0 -- -- 55
2020-06-18 10:00:00 20.6 3 Nordeste 10 Nordeste 0 -- -- 67
2020-06-18 09:00:00 19.9 0 Calma 4 Nordeste 0 -- -- 70
2020-06-18 08:00:00 17.3 0 Calma 3 Nordeste 0 -- -- 89
2020-06-18 07:00:00 13.5 0 Calma 3 Nordeste 0 -- -- 96
2020-06-18 06:00:00 14.3 0 Calma 5 Nordeste 0 -- -- 96
2020-06-18 05:00:00 15.4 0 Calma 5 Este 0 -- -- 98
2020-06-18 04:00:00 15.8 2 Este 8 Este 0 -- -- 98
2020-06-18 03:00:00 15.9 5 Este 9 Nordeste 0 -- -- 97
2020-06-18 02:00:00 16 2 Nordeste 10 Nordeste 0 -- -- 91
2020-06-18 01:00:00 16.7 5 Nordeste 11 Este 0 -- -- 87
2020-06-18 00:00:00 17.3 6 Nordeste 14 Este 0 -- -- 83
2020-06-17 23:00:00 17.7 6 Este 13 Nordeste 0 -- -- 84
2020-06-17 22:00:00 19.2 5 Nordeste 18 Este 0 -- -- 73
2020-06-17 21:00:00 21.9 5 Sudeste 22 Sur 0 -- -- 49
2020-06-17 20:00:00 23.9 12 Sur 24 Sudeste 0 -- -- 51
2020-06-17 19:00:00 24.9 13 Sur 27 Sur 0 -- -- 49
2020-06-17 18:00:00 25.3 10 Sudeste 36 Sudeste 0 -- -- 49
2020-06-17 17:00:00 26.5 16 Sur 33 Sur 0 -- -- 45
2020-06-17 16:00:00 25.7 16 Sur 30 Sur 0 -- -- 53
2020-06-17 15:00:00 27.7 16 Sur 30 Sur 0 -- -- 41
2020-06-17 14:00:00 28 9 Sur 29 Sur 0 -- -- 36
2020-06-17 13:00:00 27.9 7 Oeste 23 Sur 0 -- -- 30
2020-06-17 12:00:00 26.5 5 Sudoeste 18 Sudoeste 0 -- -- 32
2020-06-17 11:00:00 25.8 6 Sudoeste 18 Sudoeste 0 -- -- 34
2020-06-17 10:00:00 24.4 2 Sur 11 Este 0 -- -- 36
2020-06-17 09:00:00 22.1 3 Nordeste 6 Nordeste 0 -- -- 46
2020-06-17 08:00:00 17.2 0 Calma 5 Norte 0 -- -- 73
2020-06-17 07:00:00 12.4 4 Este 6 Este 0 -- -- 88
2020-06-17 06:00:00 12.6 0 Calma 5 Nordeste 0 -- -- 89
2020-06-17 05:00:00 13 0 Calma 4 Nordeste 0 -- -- 88
2020-06-17 04:00:00 13.8 0 Calma 4 Nordeste 0 -- -- 86
2020-06-17 03:00:00 15 0 Calma 5 Nordeste 0 -- -- 85
2020-06-17 02:00:00 15.8 0 Calma 4 Nordeste 0 -- -- 82
2020-06-17 01:00:00 17 0 Calma 5 Nordeste 0 -- -- 76
2020-06-17 00:00:00 18.5 3 Este 10 Nordeste 0 -- -- 75
2020-06-16 23:00:00 19 0 Calma 9 Nordeste 0 -- -- 74
2020-06-16 22:00:00 20.1 3 Nordeste 14 Este 0 -- -- 65
2020-06-16 21:00:00 19.9 10 Nordeste 16 Nordeste 0 -- -- 70
2020-06-16 20:00:00 23 3 Nordeste 9 Nordeste 0 -- -- 58
2020-06-16 19:00:00 24.1 2 Nordeste 22 Sur 0 -- -- 57
2020-06-16 18:00:00 25.1 12 Sur 26 Sudeste 0 -- -- 43
2020-06-16 17:00:00 26.5 15 Sur 31 Sur 0 -- -- 44
2020-06-16 16:00:00 30.7 8 Oeste 29 Sudoeste 0 -- -- 20
2020-06-16 15:00:00 29.6 11 Oeste 27 Oeste 0 -- -- 22
2020-06-16 14:00:00 28.7 8 Oeste 26 Sudoeste 0 -- -- 24
2020-06-16 13:00:00 28.3 10 Oeste 32 Noroeste 0 -- -- 24
2020-06-16 12:00:00 27.1 9 Noroeste 26 Noroeste 0 -- -- 26
2020-06-16 11:00:00 26.6 3 Noroeste 15 Norte 0 -- -- 28
2020-06-16 10:00:00 24.4 8 Norte 17 Noroeste 0 -- -- 31
2020-06-16 09:00:00 23.1 4 Noroeste 13 Norte 0 -- -- 32
2020-06-16 08:00:00 18.4 2 Nordeste 8 Nordeste 0 -- -- 45
2020-06-16 07:00:00 15.3 0 Calma 5 Este 0 -- -- 65
2020-06-16 06:00:00 14 3 Nordeste 6 Nordeste 0 -- -- 69
2020-06-16 05:00:00 14 0 Calma 6 Este 0 -- -- 68
2020-06-16 04:00:00 14.7 4 Nordeste 10 Norte 0 -- -- 66
2020-06-16 03:00:00 14.8 5 Nordeste 7 Este 0 -- -- 67
2020-06-16 02:00:00 15.3 3 Este 6 Nordeste 0 -- -- 66
2020-06-16 01:00:00 16.8 4 Nordeste 9 Nordeste 0 -- -- 62
2020-06-16 00:00:00 18.2 3 Nordeste 7 Nordeste 0 -- -- 56
2020-06-15 23:00:00 19.7 3 Nordeste 9 Nordeste 0 -- -- 54
2020-06-15 22:00:00 21.6 6 Nordeste 12 Sudeste 0 -- -- 47
2020-06-15 21:00:00 24.6 6 Sudeste 23 Sur 0 -- -- 32
2020-06-15 20:00:00 26.7 11 Sur 29 Sudeste 0 -- -- 29
2020-06-15 19:00:00 28 14 Sur 31 Sudoeste 0 -- -- 28
2020-06-15 18:00:00 28.6 13 Sur 30 Sur 0 -- -- 27
2020-06-15 17:00:00 29.4 14 Sur 29 Sur 0 -- -- 26
2020-06-15 16:00:00 30.2 12 Sudoeste 69 Sudoeste 0 -- -- 25
2020-06-15 15:00:00 30.1 10 Oeste 24 Sudoeste 0 -- -- 20
2020-06-15 14:00:00 29.6 7 Oeste 25 Sudoeste 0 -- -- 19
2020-06-15 13:00:00 28.9 8 Sudoeste 19 Oeste 0 -- -- 22
2020-06-15 12:00:00 27.8 5 Nordeste 16 Norte 0 -- -- 24
2020-06-15 11:00:00 24.7 8 Noroeste 19 Noroeste 0 -- -- 29
2020-06-15 10:00:00 23.4 7 Norte 17 Norte 0 -- -- 32
2020-06-15 09:00:00 22.3 5 Norte 14 Norte 0 -- -- 34
2020-06-15 08:00:00 19.7 3 Nordeste 10 Noroeste 0 -- -- 40
2020-06-15 07:00:00 15.3 0 Calma 9 Norte 0 -- -- 52
2020-06-15 06:00:00 12.5 0 Calma 5 Este 0 -- -- 69
2020-06-15 05:00:00 12.8 0 Calma 11 Norte 0 -- -- 68
2020-06-15 04:00:00 12.4 4 Nordeste 6 Nordeste 0 -- -- 69
2020-06-15 03:00:00 13.2 0 Calma 3 Este 0 -- -- 67
2020-06-15 02:00:00 13.3 0 Calma 4 Nordeste 0 -- -- 66
2020-06-15 01:00:00 14.3 3 Nordeste 4 Nordeste 0 -- -- 62
2020-06-15 00:00:00 15.8 0 Calma 7 Nordeste 0 -- -- 56
2020-06-14 23:00:00 17.7 5 Nordeste 10 Este 0 -- -- 53
2020-06-14 22:00:00 19.1 6 Nordeste 14 Nordeste 0 -- -- 46
2020-06-14 21:00:00 22.4 2 Sudeste 18 Sur 0 -- -- 33
2020-06-14 20:00:00 24.5 10 Sur 24 Sudeste 0 -- -- 30
2020-06-14 19:00:00 26.9 10 Sur 26 Sur 0 -- -- 27
2020-06-14 18:00:00 28 10 Sur 24 Este 0 -- -- 28
2020-06-14 17:00:00 28.9 8 Sur 27 Sudoeste 0 -- -- 26
2020-06-14 16:00:00 29.3 8 Sur 25 Sudoeste 0 -- -- 24
2020-06-14 15:00:00 28.7 4 Oeste 27 Sur 0 -- -- 24
2020-06-14 14:00:00 27.9 8 Sur 18 Sudoeste 0 -- -- 23
2020-06-14 13:00:00 27.3 6 Sudeste 15 Sudoeste 0 -- -- 24
2020-06-14 12:00:00 25.5 2 Noroeste 12 Noroeste 0 -- -- 27
2020-06-14 11:00:00 23.1 0 Calma 10 Oeste 0 -- -- 32
2020-06-14 10:00:00 20.7 5 Sudoeste 11 Sudoeste 0 -- -- 40
2020-06-14 09:00:00 18.3 0 Calma 4 Sudoeste 0 -- -- 49
2020-06-14 08:00:00 14.8 0 Calma 3 Nordeste 0 -- -- 65
2020-06-14 07:00:00 13.7 0 Calma 4 Nordeste 0 -- -- 67
2020-06-14 06:00:00 14.1 0 Calma 8 Nordeste 0 -- -- 64
2020-06-14 05:00:00 12.8 3 Este 5 Nordeste 0 -- -- 68
2020-06-14 04:00:00 13 2 Nordeste 8 Sudeste 0 -- -- 66
2020-06-14 03:00:00 13 3 Este 5 Nordeste 0 -- -- 66
2020-06-14 02:00:00 14 3 Nordeste 6 Nordeste 0 -- -- 63
2020-06-14 01:00:00 14.6 4 Nordeste 8 Nordeste 0 -- -- 60
2020-06-14 00:00:00 16.7 0 Calma 7 Nordeste 0 -- -- 52
2020-06-13 23:00:00 18.7 2 Nordeste 20 Sur 0 -- -- 44
2020-06-13 22:00:00 20 10 Sur 26 Sur 0 -- -- 40
2020-06-13 21:00:00 21.5 12 Sur 31 Sur 0 -- -- 36
2020-06-13 20:00:00 23.6 17 Sur 29 Sur 0 -- -- 32
2020-06-13 19:00:00 26.9 7 Noroeste 23 Oeste 0 -- -- 20
2020-06-13 18:00:00 26.9 7 Noroeste 33 Sudeste 0 -- -- 21
2020-06-13 17:00:00 27.3 2 Noroeste 44 Nordeste 0 -- -- 21
2020-06-13 16:00:00 26.1 9 Oeste 27 Oeste 0 -- -- 24
2020-06-13 15:00:00 25.7 9 Oeste 31 Sudoeste 0 -- -- 25
2020-06-13 14:00:00 23.7 10 Oeste 33 Oeste 0 -- -- 28
2020-06-13 13:00:00 23.3 9 Noroeste 31 Oeste 0 -- -- 29
2020-06-13 12:00:00 21.8 9 Noroeste 34 Noroeste 0 -- -- 32
2020-06-13 11:00:00 21 8 Noroeste 33 Noroeste 0 -- -- 37
2020-06-13 10:00:00 18.9 11 Noroeste 34 Noroeste 0 -- -- 43
2020-06-13 09:00:00 17.8 9 Noroeste 22 Noroeste 0 -- -- 47
2020-06-13 08:00:00 16.9 6 Noroeste 18 Oeste 0 -- -- 50
2020-06-13 07:00:00 15.4 5 Noroeste 27 Noroeste 0 -- -- 55
2020-06-13 06:00:00 15.9 8 Noroeste 27 Oeste 0 -- -- 51
2020-06-13 05:00:00 16.2 9 Noroeste 27 Noroeste 0 -- -- 50
2020-06-13 04:00:00 16.7 5 Oeste 20 Noroeste 0 -- -- 45
2020-06-13 03:00:00 17.7 8 Oeste 24 Oeste 0 -- -- 41
2020-06-13 02:00:00 18.5 10 Oeste 26 Oeste 0 -- -- 37
2020-06-13 01:00:00 18.9 6 Oeste 18 Oeste 0 -- -- 34
2020-06-13 00:00:00 19.3 6 Oeste 19 Oeste 0 -- -- 34
2020-06-12 23:00:00 19.6 5 Oeste 16 Sudoeste 0 -- -- 31
2020-06-12 22:00:00 20.5 6 Oeste 18 Oeste 0 -- -- 26
2020-06-12 21:00:00 21.6 9 Oeste 27 Noroeste 0 -- -- 24
2020-06-12 20:00:00 24.1 10 Oeste 25 Noroeste 0 -- -- 19
2020-06-12 19:00:00 24.9 12 Noroeste 32 Noroeste 0 -- -- 20
2020-06-12 18:00:00 25.8 12 Noroeste 38 Noroeste 0 -- -- 21
2020-06-12 17:00:00 27 9 Oeste 27 Oeste 0 -- -- 23
2020-06-12 16:00:00 26.3 8 Oeste 33 Sudoeste 0 -- -- 26
2020-06-12 15:00:00 25.4 9 Sudoeste 27 Oeste 0 -- -- 30
2020-06-12 14:00:00 24.7 10 Sudoeste 25 Oeste 0 -- -- 32
2020-06-12 13:00:00 24.5 8 Oeste 24 Oeste 0 -- -- 36
2020-06-12 12:00:00 21.8 10 Oeste 23 Oeste 0 -- -- 40
2020-06-12 11:00:00 21.2 9 Sudoeste 23 Sudoeste 0 -- -- 42
2020-06-12 10:00:00 20.6 9 Oeste 24 Sudoeste 0 -- -- 45
2020-06-12 09:00:00 19.1 8 Oeste 28 Oeste 0 -- -- 51
2020-06-12 08:00:00 16.6 8 Noroeste 19 Noroeste 0 -- -- 69
2020-06-12 07:00:00 14.9 3 Sudoeste 16 Sudoeste 0 -- -- 68
2020-06-12 06:00:00 15.8 4 Sudoeste 14 Oeste 0 -- -- 64
2020-06-12 05:00:00 17.7 9 Sudoeste 18 Sur 0 -- -- 56
2020-06-12 04:00:00 18 6 Sudoeste 17 Sudoeste 0 -- -- 57
2020-06-12 03:00:00 18.9 6 Oeste 18 Oeste 0 -- -- 53
2020-06-12 02:00:00 19.4 9 Oeste 24 Oeste 0 -- -- 50
2020-06-12 01:00:00 20.2 4 Sudoeste 21 Oeste 0 -- -- 44
2020-06-12 00:00:00 21.1 6 Oeste 23 Oeste 0 -- -- 40